sensor_id;sensor_type;location;lat;lon;timestamp;temperature;humidity
40538;DHT22;27925;41.874;12.526;2022-10-19T00:01:02;19.30;94.20
40538;DHT22;27925;41.874;12.526;2022-10-19T00:03:28;19.20;94.20
40538;DHT22;27925;41.874;12.526;2022-10-19T00:05:54;19.20;94.30
40538;DHT22;27925;41.874;12.526;2022-10-19T00:08:20;19.20;94.40
40538;DHT22;27925;41.874;12.526;2022-10-19T00:10:46;19.20;94.40
40538;DHT22;27925;41.874;12.526;2022-10-19T00:13:12;19.20;94.40
40538;DHT22;27925;41.874;12.526;2022-10-19T00:15:39;19.20;94.50
40538;DHT22;27925;41.874;12.526;2022-10-19T00:18:08;19.20;94.50
40538;DHT22;27925;41.874;12.526;2022-10-19T00:20:35;19.10;94.60
40538;DHT22;27925;41.874;12.526;2022-10-19T00:23:01;19.10;94.80
40538;DHT22;27925;41.874;12.526;2022-10-19T00:25:28;19.10;94.60
40538;DHT22;27925;41.874;12.526;2022-10-19T00:27:54;19.20;94.70
40538;DHT22;27925;41.874;12.526;2022-10-19T00:30:19;19.10;94.70
40538;DHT22;27925;41.874;12.526;2022-10-19T00:32:45;19.10;94.70
40538;DHT22;27925;41.874;12.526;2022-10-19T00:35:12;19.10;94.80
40538;DHT22;27925;41.874;12.526;2022-10-19T00:37:39;19.10;94.80
40538;DHT22;27925;41.874;12.526;2022-10-19T00:40:05;19.10;94.80
40538;DHT22;27925;41.874;12.526;2022-10-19T00:42:31;19.00;94.80
40538;DHT22;27925;41.874;12.526;2022-10-19T00:44:59;19.10;94.90
40538;DHT22;27925;41.874;12.526;2022-10-19T00:47:27;19.00;94.90
40538;DHT22;27925;41.874;12.526;2022-10-19T00:49:53;19.00;94.90
40538;DHT22;27925;41.874;12.526;2022-10-19T00:52:21;19.00;95.00
40538;DHT22;27925;41.874;12.526;2022-10-19T00:54:48;18.90;95.00
40538;DHT22;27925;41.874;12.526;2022-10-19T00:57:15;18.90;95.10
40538;DHT22;27925;41.874;12.526;2022-10-19T00:59:42;18.90;95.10
40538;DHT22;27925;41.874;12.526;2022-10-19T01:02:10;18.90;95.00
40538;DHT22;27925;41.874;12.526;2022-10-19T01:04:40;18.80;95.10
40538;DHT22;27925;41.874;12.526;2022-10-19T01:07:07;18.80;95.50
40538;DHT22;27925;41.874;12.526;2022-10-19T01:09:35;18.80;95.20
40538;DHT22;27925;41.874;12.526;2022-10-19T01:12:12;18.80;95.20
40538;DHT22;27925;41.874;12.526;2022-10-19T01:18:05;18.80;95.30
40538;DHT22;27925;41.874;12.526;2022-10-19T01:31:37;18.60;95.30
40538;DHT22;27925;41.874;12.526;2022-10-19T01:37:01;18.60;95.10
40538;DHT22;27925;41.874;12.526;2022-10-19T01:42:27;18.50;95.10
40538;DHT22;27925;41.874;12.526;2022-10-19T01:47:33;18.40;95.30
40538;DHT22;27925;41.874;12.526;2022-10-19T01:50:23;18.40;95.20
40538;DHT22;27925;41.874;12.526;2022-10-19T01:52:50;18.50;95.30
40538;DHT22;27925;41.874;12.526;2022-10-19T01:55:18;18.40;95.30
40538;DHT22;27925;41.874;12.526;2022-10-19T01:57:47;18.50;95.20
40538;DHT22;27925;41.874;12.526;2022-10-19T02:00:15;18.40;95.20
40538;DHT22;27925;41.874;12.526;2022-10-19T02:02:44;18.40;95.20
40538;DHT22;27925;41.874;12.526;2022-10-19T02:05:11;18.50;95.30
40538;DHT22;27925;41.874;12.526;2022-10-19T02:07:40;18.40;95.20
40538;DHT22;27925;41.874;12.526;2022-10-19T02:10:09;18.40;95.20
40538;DHT22;27925;41.874;12.526;2022-10-19T02:12:36;18.30;95.20
40538;DHT22;27925;41.874;12.526;2022-10-19T02:15:09;18.40;95.30
40538;DHT22;27925;41.874;12.526;2022-10-19T02:17:44;18.30;95.30
40538;DHT22;27925;41.874;12.526;2022-10-19T02:20:11;18.30;95.30
40538;DHT22;27925;41.874;12.526;2022-10-19T02:22:38;18.20;95.20
40538;DHT22;27925;41.874;12.526;2022-10-19T02:25:04;18.20;95.20
40538;DHT22;27925;41.874;12.526;2022-10-19T02:27:32;18.20;95.20
40538;DHT22;27925;41.874;12.526;2022-10-19T02:29:58;18.20;95.10
40538;DHT22;27925;41.874;12.526;2022-10-19T02:32:24;18.20;95.00
40538;DHT22;27925;41.874;12.526;2022-10-19T02:34:50;18.20;94.90
40538;DHT22;27925;41.874;12.526;2022-10-19T02:37:16;18.10;94.80
40538;DHT22;27925;41.874;12.526;2022-10-19T02:39:42;18.10;94.70
40538;DHT22;27925;41.874;12.526;2022-10-19T02:42:15;18.10;94.60
40538;DHT22;27925;41.874;12.526;2022-10-19T02:45:09;18.10;94.50
40538;DHT22;27925;41.874;12.526;2022-10-19T02:47:54;18.10;94.50
40538;DHT22;27925;41.874;12.526;2022-10-19T02:50:23;18.00;94.40
40538;DHT22;27925;41.874;12.526;2022-10-19T02:52:50;18.00;94.40
40538;DHT22;27925;41.874;12.526;2022-10-19T02:55:16;18.00;94.40
40538;DHT22;27925;41.874;12.526;2022-10-19T02:57:42;17.90;94.40
40538;DHT22;27925;41.874;12.526;2022-10-19T03:00:09;17.90;94.50
40538;DHT22;27925;41.874;12.526;2022-10-19T03:02:36;18.00;94.40
40538;DHT22;27925;41.874;12.526;2022-10-19T03:05:03;18.00;94.40
40538;DHT22;27925;41.874;12.526;2022-10-19T03:07:30;17.90;94.40
40538;DHT22;27925;41.874;12.526;2022-10-19T03:09:56;17.90;94.30
40538;DHT22;27925;41.874;12.526;2022-10-19T03:12:22;17.90;94.30
40538;DHT22;27925;41.874;12.526;2022-10-19T03:14:48;17.90;94.30
40538;DHT22;27925;41.874;12.526;2022-10-19T03:17:14;17.90;94.30
40538;DHT22;27925;41.874;12.526;2022-10-19T03:19:39;17.90;94.20
40538;DHT22;27925;41.874;12.526;2022-10-19T03:22:05;17.90;94.30
40538;DHT22;27925;41.874;12.526;2022-10-19T03:24:31;17.90;94.30
40538;DHT22;27925;41.874;12.526;2022-10-19T03:26:57;17.80;94.20
40538;DHT22;27925;41.874;12.526;2022-10-19T03:29:22;17.80;94.20
40538;DHT22;27925;41.874;12.526;2022-10-19T03:31:49;17.80;94.30
40538;DHT22;27925;41.874;12.526;2022-10-19T03:34:15;17.80;94.20
40538;DHT22;27925;41.874;12.526;2022-10-19T03:36:40;17.80;94.20
40538;DHT22;27925;41.874;12.526;2022-10-19T03:39:10;17.80;94.20
40538;DHT22;27925;41.874;12.526;2022-10-19T03:41:36;17.80;94.20
40538;DHT22;27925;41.874;12.526;2022-10-19T03:44:03;17.80;94.20
40538;DHT22;27925;41.874;12.526;2022-10-19T03:46:31;17.80;94.20
40538;DHT22;27925;41.874;12.526;2022-10-19T03:48:57;17.80;94.10
40538;DHT22;27925;41.874;12.526;2022-10-19T03:51:26;17.80;94.00
40538;DHT22;27925;41.874;12.526;2022-10-19T03:54:03;17.80;94.00
40538;DHT22;27925;41.874;12.526;2022-10-19T03:56:29;17.70;94.10
40538;DHT22;27925;41.874;12.526;2022-10-19T03:58:57;17.70;94.10
40538;DHT22;27925;41.874;12.526;2022-10-19T04:01:38;17.70;94.10
40538;DHT22;27925;41.874;12.526;2022-10-19T04:04:07;17.70;94.10
40538;DHT22;27925;41.874;12.526;2022-10-19T04:06:36;17.70;94.00
40538;DHT22;27925;41.874;12.526;2022-10-19T04:09:04;17.70;93.90
40538;DHT22;27925;41.874;12.526;2022-10-19T04:11:31;17.60;93.90
40538;DHT22;27925;41.874;12.526;2022-10-19T04:13:58;17.60;93.90
40538;DHT22;27925;41.874;12.526;2022-10-19T04:16:26;17.50;93.80
40538;DHT22;27925;41.874;12.526;2022-10-19T04:18:52;17.50;93.80
40538;DHT22;27925;41.874;12.526;2022-10-19T04:21:36;17.40;93.70
40538;DHT22;27925;41.874;12.526;2022-10-19T04:24:08;17.40;93.60
40538;DHT22;27925;41.874;12.526;2022-10-19T04:26:41;17.40;93.60
40538;DHT22;27925;41.874;12.526;2022-10-19T04:29:08;17.40;93.50
40538;DHT22;27925;41.874;12.526;2022-10-19T04:31:34;17.50;93.60
40538;DHT22;27925;41.874;12.526;2022-10-19T04:34:00;17.50;93.50
40538;DHT22;27925;41.874;12.526;2022-10-19T04:36:25;17.50;93.40
40538;DHT22;27925;41.874;12.526;2022-10-19T04:38:51;17.50;93.30
40538;DHT22;27925;41.874;12.526;2022-10-19T04:41:19;17.50;93.30
40538;DHT22;27925;41.874;12.526;2022-10-19T04:43:45;17.50;93.20
40538;DHT22;27925;41.874;12.526;2022-10-19T04:46:13;17.50;93.10
40538;DHT22;27925;41.874;12.526;2022-10-19T04:48:41;17.50;93.00
40538;DHT22;27925;41.874;12.526;2022-10-19T04:51:07;17.50;92.90
40538;DHT22;27925;41.874;12.526;2022-10-19T04:53:34;17.50;92.80
40538;DHT22;27925;41.874;12.526;2022-10-19T04:56:05;17.40;92.70
40538;DHT22;27925;41.874;12.526;2022-10-19T04:58:31;17.40;92.80
40538;DHT22;27925;41.874;12.526;2022-10-19T05:00:57;17.40;92.80
40538;DHT22;27925;41.874;12.526;2022-10-19T05:03:23;17.40;92.80
40538;DHT22;27925;41.874;12.526;2022-10-19T05:05:49;17.40;92.70
40538;DHT22;27925;41.874;12.526;2022-10-19T05:08:15;17.40;92.80
40538;DHT22;27925;41.874;12.526;2022-10-19T05:10:41;17.40;92.80
40538;DHT22;27925;41.874;12.526;2022-10-19T05:13:07;17.40;92.80
40538;DHT22;27925;41.874;12.526;2022-10-19T05:15:32;17.40;92.90
40538;DHT22;27925;41.874;12.526;2022-10-19T05:17:58;17.40;92.90
40538;DHT22;27925;41.874;12.526;2022-10-19T05:20:24;17.40;92.90
40538;DHT22;27925;41.874;12.526;2022-10-19T05:22:50;17.40;92.90
40538;DHT22;27925;41.874;12.526;2022-10-19T05:25:16;17.30;92.90
40538;DHT22;27925;41.874;12.526;2022-10-19T05:27:42;17.30;92.90
40538;DHT22;27925;41.874;12.526;2022-10-19T05:30:08;17.30;92.90
40538;DHT22;27925;41.874;12.526;2022-10-19T05:32:34;17.30;92.90
40538;DHT22;27925;41.874;12.526;2022-10-19T05:35:00;17.30;92.90
40538;DHT22;27925;41.874;12.526;2022-10-19T05:37:26;17.30;92.90
40538;DHT22;27925;41.874;12.526;2022-10-19T05:39:53;17.30;92.80
40538;DHT22;27925;41.874;12.526;2022-10-19T05:42:19;17.30;92.80
40538;DHT22;27925;41.874;12.526;2022-10-19T05:44:44;17.30;92.80
40538;DHT22;27925;41.874;12.526;2022-10-19T05:47:10;17.30;92.70
40538;DHT22;27925;41.874;12.526;2022-10-19T05:49:36;17.30;92.70
40538;DHT22;27925;41.874;12.526;2022-10-19T05:52:02;17.30;92.60
40538;DHT22;27925;41.874;12.526;2022-10-19T05:54:27;17.30;92.60
40538;DHT22;27925;41.874;12.526;2022-10-19T05:56:53;17.40;92.60
40538;DHT22;27925;41.874;12.526;2022-10-19T05:59:20;17.40;92.40
40538;DHT22;27925;41.874;12.526;2022-10-19T06:01:47;17.40;92.30
40538;DHT22;27925;41.874;12.526;2022-10-19T06:04:13;17.40;92.30
40538;DHT22;27925;41.874;12.526;2022-10-19T06:06:40;17.40;92.10
40538;DHT22;27925;41.874;12.526;2022-10-19T06:09:06;17.40;92.10
40538;DHT22;27925;41.874;12.526;2022-10-19T06:11:35;17.50;92.00
40538;DHT22;27925;41.874;12.526;2022-10-19T06:14:04;17.50;91.90
40538;DHT22;27925;41.874;12.526;2022-10-19T06:16:31;17.50;91.90
40538;DHT22;27925;41.874;12.526;2022-10-19T06:18:57;17.60;91.80
40538;DHT22;27925;41.874;12.526;2022-10-19T06:21:27;17.60;91.70
40538;DHT22;27925;41.874;12.526;2022-10-19T06:23:56;17.60;91.50
40538;DHT22;27925;41.874;12.526;2022-10-19T06:26:23;17.70;91.50
40538;DHT22;27925;41.874;12.526;2022-10-19T06:28:49;17.70;91.40
40538;DHT22;27925;41.874;12.526;2022-10-19T06:31:15;17.80;91.30
40538;DHT22;27925;41.874;12.526;2022-10-19T06:33:43;17.80;91.20
40538;DHT22;27925;41.874;12.526;2022-10-19T06:36:13;17.90;91.20
40538;DHT22;27925;41.874;12.526;2022-10-19T06:38:40;18.00;91.20
40538;DHT22;27925;41.874;12.526;2022-10-19T06:41:07;18.10;91.10
40538;DHT22;27925;41.874;12.526;2022-10-19T06:43:33;18.20;90.90
40538;DHT22;27925;41.874;12.526;2022-10-19T06:46:06;18.40;90.80
40538;DHT22;27925;41.874;12.526;2022-10-19T06:48:32;18.40;90.60
40538;DHT22;27925;41.874;12.526;2022-10-19T06:50:59;18.50;90.20
40538;DHT22;27925;41.874;12.526;2022-10-19T06:53:25;18.50;90.20
40538;DHT22;27925;41.874;12.526;2022-10-19T06:55:51;18.60;89.90
40538;DHT22;27925;41.874;12.526;2022-10-19T06:58:18;18.80;89.50
40538;DHT22;27925;41.874;12.526;2022-10-19T07:00:43;18.80;88.90
40538;DHT22;27925;41.874;12.526;2022-10-19T07:03:09;18.80;88.50
40538;DHT22;27925;41.874;12.526;2022-10-19T07:05:35;18.90;88.60
40538;DHT22;27925;41.874;12.526;2022-10-19T07:08:00;19.00;88.20
40538;DHT22;27925;41.874;12.526;2022-10-19T07:10:26;19.00;88.10
40538;DHT22;27925;41.874;12.526;2022-10-19T07:12:52;19.00;87.60
40538;DHT22;27925;41.874;12.526;2022-10-19T07:15:17;18.90;87.50
40538;DHT22;27925;41.874;12.526;2022-10-19T07:17:43;19.00;88.10
40538;DHT22;27925;41.874;12.526;2022-10-19T07:20:09;19.00;88.00
40538;DHT22;27925;41.874;12.526;2022-10-19T07:22:35;19.10;87.90
40538;DHT22;27925;41.874;12.526;2022-10-19T07:25:01;19.20;87.50
40538;DHT22;27925;41.874;12.526;2022-10-19T07:27:26;19.30;87.30
40538;DHT22;27925;41.874;12.526;2022-10-19T07:29:52;19.40;87.00
40538;DHT22;27925;41.874;12.526;2022-10-19T07:32:18;19.40;86.80
40538;DHT22;27925;41.874;12.526;2022-10-19T07:34:44;19.40;86.70
40538;DHT22;27925;41.874;12.526;2022-10-19T07:37:10;19.50;86.50
40538;DHT22;27925;41.874;12.526;2022-10-19T07:39:35;19.50;86.60
40538;DHT22;27925;41.874;12.526;2022-10-19T07:42:01;19.50;86.70
40538;DHT22;27925;41.874;12.526;2022-10-19T07:44:27;19.50;86.60
40538;DHT22;27925;41.874;12.526;2022-10-19T07:46:52;19.60;86.70
40538;DHT22;27925;41.874;12.526;2022-10-19T07:49:18;19.50;86.50
40538;DHT22;27925;41.874;12.526;2022-10-19T07:51:45;19.50;86.20
40538;DHT22;27925;41.874;12.526;2022-10-19T07:54:11;19.50;86.40
40538;DHT22;27925;41.874;12.526;2022-10-19T07:56:37;19.50;86.70
40538;DHT22;27925;41.874;12.526;2022-10-19T07:59:04;19.50;86.70
40538;DHT22;27925;41.874;12.526;2022-10-19T08:01:37;19.40;86.30
40538;DHT22;27925;41.874;12.526;2022-10-19T08:04:05;19.50;87.20
40538;DHT22;27925;41.874;12.526;2022-10-19T08:06:31;19.50;86.60
40538;DHT22;27925;41.874;12.526;2022-10-19T08:08:56;19.50;86.50
40538;DHT22;27925;41.874;12.526;2022-10-19T08:11:28;19.50;86.30
40538;DHT22;27925;41.874;12.526;2022-10-19T08:13:54;19.50;85.90
40538;DHT22;27925;41.874;12.526;2022-10-19T08:16:33;19.50;85.70
40538;DHT22;27925;41.874;12.526;2022-10-19T08:19:03;19.60;86.20
40538;DHT22;27925;41.874;12.526;2022-10-19T08:21:31;19.60;85.10
40538;DHT22;27925;41.874;12.526;2022-10-19T08:23:57;19.60;85.20
40538;DHT22;27925;41.874;12.526;2022-10-19T08:26:24;19.70;85.20
40538;DHT22;27925;41.874;12.526;2022-10-19T08:28:50;19.80;84.90
40538;DHT22;27925;41.874;12.526;2022-10-19T08:31:18;19.80;84.80
40538;DHT22;27925;41.874;12.526;2022-10-19T08:33:44;19.80;84.00
40538;DHT22;27925;41.874;12.526;2022-10-19T08:36:12;19.80;84.10
40538;DHT22;27925;41.874;12.526;2022-10-19T08:38:39;19.90;84.00
40538;DHT22;27925;41.874;12.526;2022-10-19T08:49:45;20.10;83.40
40538;DHT22;27925;41.874;12.526;2022-10-19T08:52:24;20.20;82.80
40538;DHT22;27925;41.874;12.526;2022-10-19T08:54:56;20.20;82.60
40538;DHT22;27925;41.874;12.526;2022-10-19T08:57:45;20.30;82.50
40538;DHT22;27925;41.874;12.526;2022-10-19T09:05:52;20.50;82.50
40538;DHT22;27925;41.874;12.526;2022-10-19T09:08:22;20.60;82.10
40538;DHT22;27925;41.874;12.526;2022-10-19T09:10:52;20.70;81.60
40538;DHT22;27925;41.874;12.526;2022-10-19T09:15:56;20.80;80.50
40538;DHT22;27925;41.874;12.526;2022-10-19T09:18:25;20.90;80.20
40538;DHT22;27925;41.874;12.526;2022-10-19T09:26:14;21.10;80.00
40538;DHT22;27925;41.874;12.526;2022-10-19T09:31:13;21.20;80.00
40538;DHT22;27925;41.874;12.526;2022-10-19T09:33:41;21.30;77.10
40538;DHT22;27925;41.874;12.526;2022-10-19T09:36:07;21.40;76.50
40538;DHT22;27925;41.874;12.526;2022-10-19T09:38:34;21.40;76.10
40538;DHT22;27925;41.874;12.526;2022-10-19T09:41:14;21.50;75.50
40538;DHT22;27925;41.874;12.526;2022-10-19T09:43:47;21.60;75.40
40538;DHT22;27925;41.874;12.526;2022-10-19T09:49:08;21.80;75.50
40538;DHT22;27925;41.874;12.526;2022-10-19T09:52:00;21.90;74.50
40538;DHT22;27925;41.874;12.526;2022-10-19T09:54:32;22.00;73.90
40538;DHT22;27925;41.874;12.526;2022-10-19T09:56:59;22.00;73.60
40538;DHT22;27925;41.874;12.526;2022-10-19T09:59:35;22.10;72.90
40538;DHT22;27925;41.874;12.526;2022-10-19T10:02:15;22.20;72.80
40538;DHT22;27925;41.874;12.526;2022-10-19T10:04:45;22.20;72.10
40538;DHT22;27925;41.874;12.526;2022-10-19T10:07:17;22.30;72.10
40538;DHT22;27925;41.874;12.526;2022-10-19T10:09:44;22.40;72.10
40538;DHT22;27925;41.874;12.526;2022-10-19T10:12:13;22.50;72.00
40538;DHT22;27925;41.874;12.526;2022-10-19T10:14:40;22.60;72.10
40538;DHT22;27925;41.874;12.526;2022-10-19T10:17:15;22.70;71.50
40538;DHT22;27925;41.874;12.526;2022-10-19T10:20:00;22.70;71.80
40538;DHT22;27925;41.874;12.526;2022-10-19T10:22:32;22.80;70.80
40538;DHT22;27925;41.874;12.526;2022-10-19T10:24:59;22.90;70.50
40538;DHT22;27925;41.874;12.526;2022-10-19T10:29:55;23.00;71.00
40538;DHT22;27925;41.874;12.526;2022-10-19T10:32:21;23.10;70.80
40538;DHT22;27925;41.874;12.526;2022-10-19T10:35:00;23.10;70.30
40538;DHT22;27925;41.874;12.526;2022-10-19T10:37:28;23.20;68.30
40538;DHT22;27925;41.874;12.526;2022-10-19T10:39:56;23.30;69.60
40538;DHT22;27925;41.874;12.526;2022-10-19T10:42:39;23.30;69.00
40538;DHT22;27925;41.874;12.526;2022-10-19T10:45:23;23.40;69.20
40538;DHT22;27925;41.874;12.526;2022-10-19T10:47:50;23.50;66.90
40538;DHT22;27925;41.874;12.526;2022-10-19T10:50:28;23.50;68.50
40538;DHT22;27925;41.874;12.526;2022-10-19T10:53:27;23.60;68.20
40538;DHT22;27925;41.874;12.526;2022-10-19T10:55:56;23.70;67.10
40538;DHT22;27925;41.874;12.526;2022-10-19T10:58:34;23.80;67.00
40538;DHT22;27925;41.874;12.526;2022-10-19T11:01:05;23.90;66.20
40538;DHT22;27925;41.874;12.526;2022-10-19T11:03:32;23.90;66.20
40538;DHT22;27925;41.874;12.526;2022-10-19T11:06:01;24.00;66.10
40538;DHT22;27925;41.874;12.526;2022-10-19T11:08:31;24.00;65.80
40538;DHT22;27925;41.874;12.526;2022-10-19T11:11:13;24.10;65.70
40538;DHT22;27925;41.874;12.526;2022-10-19T11:13:53;24.10;66.00
40538;DHT22;27925;41.874;12.526;2022-10-19T11:16:33;24.30;64.70
40538;DHT22;27925;41.874;12.526;2022-10-19T11:30:13;24.70;64.20
40538;DHT22;27925;41.874;12.526;2022-10-19T11:33:00;24.80;64.10
40538;DHT22;27925;41.874;12.526;2022-10-19T11:46:48;25.00;60.70
40538;DHT22;27925;41.874;12.526;2022-10-19T11:51:50;25.10;60.50
40538;DHT22;27925;41.874;12.526;2022-10-19T11:57:36;25.20;59.30
40538;DHT22;27925;41.874;12.526;2022-10-19T12:00:13;25.30;58.40
40538;DHT22;27925;41.874;12.526;2022-10-19T12:13:55;25.50;59.20
40538;DHT22;27925;41.874;12.526;2022-10-19T12:16:34;25.60;59.30
40538;DHT22;27925;41.874;12.526;2022-10-19T12:19:02;25.70;59.10
40538;DHT22;27925;41.874;12.526;2022-10-19T12:21:33;25.80;58.70
40538;DHT22;27925;41.874;12.526;2022-10-19T12:24:02;25.80;58.50
40538;DHT22;27925;41.874;12.526;2022-10-19T12:26:34;25.90;58.30
40538;DHT22;27925;41.874;12.526;2022-10-19T12:29:03;25.90;58.00
40538;DHT22;27925;41.874;12.526;2022-10-19T12:31:30;26.00;57.30
40538;DHT22;27925;41.874;12.526;2022-10-19T12:37:16;26.10;56.80
40538;DHT22;27925;41.874;12.526;2022-10-19T12:39:54;26.10;56.60
40538;DHT22;27925;41.874;12.526;2022-10-19T12:42:48;26.20;56.50
40538;DHT22;27925;41.874;12.526;2022-10-19T12:48:22;26.40;54.90
40538;DHT22;27925;41.874;12.526;2022-10-19T12:56:17;26.50;55.90
40538;DHT22;27925;41.874;12.526;2022-10-19T13:03:47;26.60;56.20
40538;DHT22;27925;41.874;12.526;2022-10-19T13:08:55;26.60;56.00
40538;DHT22;27925;41.874;12.526;2022-10-19T13:11:21;26.60;56.30
40538;DHT22;27925;41.874;12.526;2022-10-19T13:16:54;26.70;54.60
40538;DHT22;27925;41.874;12.526;2022-10-19T13:19:21;26.80;55.60
40538;DHT22;27925;41.874;12.526;2022-10-19T13:21:52;26.80;55.20
40538;DHT22;27925;41.874;12.526;2022-10-19T13:24:31;26.80;55.20
40538;DHT22;27925;41.874;12.526;2022-10-19T13:27:22;26.90;54.60
40538;DHT22;27925;41.874;12.526;2022-10-19T13:29:48;26.90;54.60
40538;DHT22;27925;41.874;12.526;2022-10-19T13:43:19;27.10;54.50
40538;DHT22;27925;41.874;12.526;2022-10-19T13:46:15;27.10;54.30
40538;DHT22;27925;41.874;12.526;2022-10-19T13:54:22;27.20;53.70
40538;DHT22;27925;41.874;12.526;2022-10-19T14:10:37;27.20;52.50
40538;DHT22;27925;41.874;12.526;2022-10-19T14:13:05;27.20;53.10
40538;DHT22;27925;41.874;12.526;2022-10-19T14:15:36;27.30;53.30
40538;DHT22;27925;41.874;12.526;2022-10-19T14:18:01;27.30;53.20
40538;DHT22;27925;41.874;12.526;2022-10-19T14:20:32;27.30;52.60
40538;DHT22;27925;41.874;12.526;2022-10-19T14:23:28;27.20;53.50
40538;DHT22;27925;41.874;12.526;2022-10-19T14:26:03;27.20;57.40
40538;DHT22;27925;41.874;12.526;2022-10-19T14:28:34;27.10;59.80
40538;DHT22;27925;41.874;12.526;2022-10-19T14:31:05;27.00;60.90
40538;DHT22;27925;41.874;12.526;2022-10-19T14:33:39;27.00;62.00
40538;DHT22;27925;41.874;12.526;2022-10-19T14:36:16;26.90;62.60
40538;DHT22;27925;41.874;12.526;2022-10-19T14:38:43;26.90;63.00
40538;DHT22;27925;41.874;12.526;2022-10-19T14:43:53;26.80;63.60
40538;DHT22;27925;41.874;12.526;2022-10-19T14:46:19;26.80;64.50
40538;DHT22;27925;41.874;12.526;2022-10-19T14:48:48;26.70;64.60
40538;DHT22;27925;41.874;12.526;2022-10-19T14:51:27;26.60;65.40
40538;DHT22;27925;41.874;12.526;2022-10-19T14:57:13;26.50;65.30
40538;DHT22;27925;41.874;12.526;2022-10-19T14:59:51;26.50;65.70
40538;DHT22;27925;41.874;12.526;2022-10-19T15:02:24;26.40;66.60
40538;DHT22;27925;41.874;12.526;2022-10-19T15:04:53;26.40;66.70
40538;DHT22;27925;41.874;12.526;2022-10-19T15:07:38;26.30;67.00
40538;DHT22;27925;41.874;12.526;2022-10-19T15:10:28;26.30;66.50
40538;DHT22;27925;41.874;12.526;2022-10-19T15:13:02;26.20;66.70
40538;DHT22;27925;41.874;12.526;2022-10-19T15:15:31;26.20;68.20
40538;DHT22;27925;41.874;12.526;2022-10-19T15:20:31;26.00;68.30
40538;DHT22;27925;41.874;12.526;2022-10-19T15:23:00;26.00;68.90
40538;DHT22;27925;41.874;12.526;2022-10-19T15:27:54;25.80;69.00
40538;DHT22;27925;41.874;12.526;2022-10-19T15:30:30;25.80;69.50
40538;DHT22;27925;41.874;12.526;2022-10-19T15:35:32;25.60;70.10
40538;DHT22;27925;41.874;12.526;2022-10-19T15:38:24;25.50;70.40
40538;DHT22;27925;41.874;12.526;2022-10-19T15:41:00;25.40;69.90
40538;DHT22;27925;41.874;12.526;2022-10-19T15:46:07;25.30;71.80
40538;DHT22;27925;41.874;12.526;2022-10-19T15:48:49;25.20;70.90
40538;DHT22;27925;41.874;12.526;2022-10-19T15:56:22;25.00;72.00
40538;DHT22;27925;41.874;12.526;2022-10-19T15:58:53;24.90;72.80
40538;DHT22;27925;41.874;12.526;2022-10-19T16:01:28;24.80;72.40
40538;DHT22;27925;41.874;12.526;2022-10-19T16:03:55;24.80;72.90
40538;DHT22;27925;41.874;12.526;2022-10-19T16:06:25;24.70;73.50
40538;DHT22;27925;41.874;12.526;2022-10-19T16:08:57;24.60;74.30
40538;DHT22;27925;41.874;12.526;2022-10-19T16:11:43;24.50;74.00
40538;DHT22;27925;41.874;12.526;2022-10-19T16:14:09;24.40;74.30
40538;DHT22;27925;41.874;12.526;2022-10-19T16:16:35;24.30;74.80
40538;DHT22;27925;41.874;12.526;2022-10-19T16:19:01;24.20;75.20
40538;DHT22;27925;41.874;12.526;2022-10-19T16:21:32;24.10;75.20
40538;DHT22;27925;41.874;12.526;2022-10-19T16:23:58;24.00;76.00
40538;DHT22;27925;41.874;12.526;2022-10-19T16:26:25;24.00;76.00
40538;DHT22;27925;41.874;12.526;2022-10-19T16:28:52;23.90;76.40
40538;DHT22;27925;41.874;12.526;2022-10-19T16:31:18;23.90;76.50
40538;DHT22;27925;41.874;12.526;2022-10-19T16:33:44;23.80;76.70
40538;DHT22;27925;41.874;12.526;2022-10-19T16:36:10;23.70;76.80
40538;DHT22;27925;41.874;12.526;2022-10-19T16:38:35;23.70;76.90
40538;DHT22;27925;41.874;12.526;2022-10-19T16:41:04;23.60;77.20
40538;DHT22;27925;41.874;12.526;2022-10-19T16:43:30;23.50;77.50
40538;DHT22;27925;41.874;12.526;2022-10-19T16:45:56;23.50;77.70
40538;DHT22;27925;41.874;12.526;2022-10-19T16:48:22;23.50;77.70
40538;DHT22;27925;41.874;12.526;2022-10-19T16:53:40;23.40;78.60
40538;DHT22;27925;41.874;12.526;2022-10-19T16:56:10;23.30;77.90
40538;DHT22;27925;41.874;12.526;2022-10-19T16:58:39;23.20;78.50
40538;DHT22;27925;41.874;12.526;2022-10-19T17:01:09;23.20;78.80
40538;DHT22;27925;41.874;12.526;2022-10-19T17:03:36;23.20;79.00
40538;DHT22;27925;41.874;12.526;2022-10-19T17:06:04;23.10;79.30
40538;DHT22;27925;41.874;12.526;2022-10-19T17:08:31;23.10;79.00
40538;DHT22;27925;41.874;12.526;2022-10-19T17:11:08;23.10;79.30
40538;DHT22;27925;41.874;12.526;2022-10-19T17:13:34;23.00;79.60
40538;DHT22;27925;41.874;12.526;2022-10-19T17:16:04;23.00;79.70
40538;DHT22;27925;41.874;12.526;2022-10-19T17:18:30;23.00;80.40
40538;DHT22;27925;41.874;12.526;2022-10-19T17:21:08;22.90;80.00
40538;DHT22;27925;41.874;12.526;2022-10-19T17:23:34;22.90;80.30
40538;DHT22;27925;41.874;12.526;2022-10-19T17:26:00;22.90;80.50
40538;DHT22;27925;41.874;12.526;2022-10-19T17:28:26;22.90;80.90
40538;DHT22;27925;41.874;12.526;2022-10-19T17:30:52;22.80;81.10
40538;DHT22;27925;41.874;12.526;2022-10-19T17:33:20;22.80;81.70
40538;DHT22;27925;41.874;12.526;2022-10-19T17:35:47;22.80;82.30
40538;DHT22;27925;41.874;12.526;2022-10-19T17:38:12;22.70;81.70
40538;DHT22;27925;41.874;12.526;2022-10-19T17:41:39;22.70;87.10
40538;DHT22;27925;41.874;12.526;2022-10-19T17:44:05;22.70;82.30
40538;DHT22;27925;41.874;12.526;2022-10-19T17:46:33;22.70;82.60
40538;DHT22;27925;41.874;12.526;2022-10-19T17:48:59;22.60;82.50
40538;DHT22;27925;41.874;12.526;2022-10-19T17:51:27;22.60;83.10
40538;DHT22;27925;41.874;12.526;2022-10-19T17:53:55;22.60;83.30
40538;DHT22;27925;41.874;12.526;2022-10-19T17:56:22;22.50;83.60
40538;DHT22;27925;41.874;12.526;2022-10-19T17:58:48;22.50;84.10
40538;DHT22;27925;41.874;12.526;2022-10-19T18:01:15;22.50;84.20
40538;DHT22;27925;41.874;12.526;2022-10-19T18:03:41;22.40;84.40
40538;DHT22;27925;41.874;12.526;2022-10-19T18:06:10;22.40;84.60
40538;DHT22;27925;41.874;12.526;2022-10-19T18:08:39;22.40;84.80
40538;DHT22;27925;41.874;12.526;2022-10-19T18:11:43;22.30;84.90
40538;DHT22;27925;41.874;12.526;2022-10-19T18:14:03;22.30;86.10
40538;DHT22;27925;41.874;12.526;2022-10-19T18:16:32;22.30;85.60
40538;DHT22;27925;41.874;12.526;2022-10-19T18:18:59;22.30;86.00